createdAt,value
2019-05-25T00:00:11.982Z,13.10
2019-05-25T00:00:57.721Z,13.20
2019-05-25T00:01:43.376Z,13.10
2019-05-25T00:02:29.571Z,13.10
2019-05-25T00:03:15.572Z,13.10
2019-05-25T00:04:02.057Z,13.10
2019-05-25T00:04:48.511Z,13.10
2019-05-25T00:05:34.894Z,13.10
2019-05-25T00:06:21.439Z,13.10
2019-05-25T00:07:08.007Z,13.10
2019-05-25T00:07:54.177Z,13.10
2019-05-25T00:08:40.805Z,13.10
2019-05-25T00:09:27.107Z,13.00
2019-05-25T00:10:13.942Z,13.00
2019-05-25T00:10:59.926Z,13.00
2019-05-25T00:11:46.187Z,12.90
2019-05-25T00:12:32.487Z,12.90
2019-05-25T00:13:18.762Z,12.90
2019-05-25T00:14:05.436Z,12.90
2019-05-25T00:14:51.882Z,12.90
2019-05-25T00:15:37.984Z,12.90
2019-05-25T00:16:24.708Z,12.90
2019-05-25T00:17:11.218Z,12.90
2019-05-25T00:17:57.850Z,12.90
2019-05-25T00:18:45.333Z,12.90
2019-05-25T00:19:32.707Z,12.80
2019-05-25T00:20:19.058Z,12.80
2019-05-25T00:21:05.374Z,12.80
2019-05-25T00:21:51.710Z,12.80
2019-05-25T00:22:37.610Z,12.80
2019-05-25T00:23:23.545Z,12.80
2019-05-25T00:24:12.602Z,12.80
2019-05-25T00:24:57.582Z,12.80
2019-05-25T00:25:43.235Z,12.70
2019-05-25T00:26:28.936Z,12.70
2019-05-25T00:27:14.662Z,12.70
2019-05-25T00:28:02.417Z,12.60
2019-05-25T00:28:48.699Z,12.60
2019-05-25T00:29:34.859Z,12.60
2019-05-25T00:30:20.891Z,12.60
2019-05-25T00:31:07.112Z,12.60
2019-05-25T00:31:53.444Z,12.60
2019-05-25T00:32:39.858Z,12.60
2019-05-25T00:33:25.892Z,12.60
2019-05-25T00:34:12.014Z,12.60
2019-05-25T00:34:58.414Z,12.60
2019-05-25T00:35:44.848Z,12.50
2019-05-25T00:36:30.947Z,12.50
2019-05-25T00:37:17.134Z,12.50
2019-05-25T00:38:03.565Z,12.40
2019-05-25T00:38:49.770Z,12.50
2019-05-25T00:39:36.437Z,12.50
2019-05-25T00:40:23.073Z,12.40
2019-05-25T00:41:09.710Z,12.40
2019-05-25T00:41:56.043Z,12.40
2019-05-25T00:42:42.090Z,12.40
2019-05-25T00:43:27.981Z,12.40
2019-05-25T00:44:14.512Z,12.40
2019-05-25T00:45:00.859Z,12.30
2019-05-25T00:45:47.406Z,12.30
2019-05-25T00:46:33.737Z,12.30
2019-05-25T00:47:19.746Z,12.30
2019-05-25T00:48:05.990Z,12.30
2019-05-25T00:48:51.875Z,12.30
2019-05-25T00:49:37.839Z,12.30
2019-05-25T00:50:27.446Z,12.30
2019-05-25T00:51:13.610Z,12.30
2019-05-25T00:51:59.480Z,12.20
2019-05-25T00:52:45.520Z,12.20
2019-05-25T00:53:32.025Z,12.20
2019-05-25T00:54:27.390Z,12.10
2019-05-25T00:55:07.286Z,12.10
2019-05-25T00:55:52.931Z,12.10
2019-05-25T00:56:38.862Z,12.10
2019-05-25T00:57:25.253Z,12.10
2019-05-25T00:58:11.123Z,12.10
2019-05-25T00:58:57.049Z,12.10
2019-05-25T00:59:43.171Z,12.00
2019-05-25T01:00:29.648Z,12.10
2019-05-25T01:01:15.903Z,12.00
2019-05-25T01:02:02.574Z,12.00
2019-05-25T01:02:48.462Z,11.90
2019-05-25T01:03:36.227Z,11.90
2019-05-25T01:04:22.619Z,11.90
2019-05-25T01:05:09.596Z,11.80
2019-05-25T01:05:55.928Z,11.80
2019-05-25T01:06:42.411Z,11.80
2019-05-25T01:07:28.687Z,11.80
2019-05-25T01:08:15.173Z,11.90
2019-05-25T01:09:01.710Z,11.80
2019-05-25T01:09:50.838Z,11.90
2019-05-25T01:10:36.976Z,11.80
2019-05-25T01:11:23.484Z,11.80
2019-05-25T01:12:09.612Z,11.80
2019-05-25T01:12:55.728Z,11.80
2019-05-25T01:13:41.736Z,11.80
2019-05-25T01:14:27.656Z,11.70
2019-05-25T01:15:13.990Z,11.70
2019-05-25T01:16:00.072Z,11.70
2019-05-25T01:16:46.284Z,11.70
2019-05-25T01:17:32.401Z,11.70
2019-05-25T01:18:18.468Z,11.70
2019-05-25T01:19:04.722Z,11.60
2019-05-25T01:19:50.631Z,11.60
2019-05-25T01:20:38.796Z,11.60
2019-05-25T01:21:25.472Z,11.50
2019-05-25T01:22:11.542Z,11.50
2019-05-25T01:22:57.582Z,11.50
2019-05-25T01:23:43.497Z,11.50
2019-05-25T01:24:43.375Z,11.50
2019-05-25T01:25:17.825Z,11.50
2019-05-25T01:26:04.211Z,11.50
2019-05-25T01:26:50.324Z,11.40
2019-05-25T01:27:36.193Z,11.40
2019-05-25T01:28:21.952Z,11.30
2019-05-25T01:29:07.731Z,11.40
2019-05-25T01:29:53.770Z,11.30
2019-05-25T01:30:39.982Z,11.30
2019-05-25T01:31:25.855Z,11.30
2019-05-25T01:32:11.948Z,11.30
2019-05-25T01:32:57.899Z,11.30
2019-05-25T01:33:44.063Z,11.30
2019-05-25T01:34:30.203Z,11.30
2019-05-25T01:35:16.856Z,11.30
2019-05-25T01:36:03.123Z,11.30
2019-05-25T01:36:49.236Z,11.20
2019-05-25T01:37:35.412Z,11.20
2019-05-25T01:38:21.938Z,11.20
2019-05-25T01:39:08.327Z,11.20
2019-05-25T01:39:54.727Z,11.30
2019-05-25T01:40:41.243Z,11.20
2019-05-25T01:41:27.733Z,11.20
2019-05-25T01:42:14.233Z,11.20
2019-05-25T01:43:00.239Z,11.30
2019-05-25T01:43:46.605Z,11.30
2019-05-25T01:44:32.559Z,11.30
2019-05-25T01:45:18.628Z,11.30
2019-05-25T01:46:04.479Z,11.20
2019-05-25T01:46:50.219Z,11.20
2019-05-25T01:47:36.509Z,11.20
2019-05-25T01:48:22.351Z,11.20
2019-05-25T01:49:08.034Z,11.20
2019-05-25T01:49:53.862Z,11.10
2019-05-25T01:50:39.611Z,11.10
2019-05-25T01:51:26.019Z,11.10
2019-05-25T01:52:11.907Z,11.10
2019-05-25T01:52:57.544Z,11.00
2019-05-25T01:53:43.243Z,11.00
2019-05-25T01:54:29.420Z,11.10
2019-05-25T01:55:15.108Z,11.10
2019-05-25T01:56:01.108Z,11.10
2019-05-25T01:56:46.749Z,11.10
2019-05-25T01:57:32.455Z,11.10
2019-05-25T01:58:18.192Z,11.10
2019-05-25T01:59:03.943Z,11.10
2019-05-25T01:59:49.729Z,11.10
2019-05-25T02:00:35.490Z,11.10
2019-05-25T02:01:21.853Z,11.10
2019-05-25T02:02:08.134Z,11.10
2019-05-25T02:02:54.000Z,11.00
2019-05-25T02:03:40.112Z,11.10
2019-05-25T02:04:26.266Z,11.00
2019-05-25T02:05:12.197Z,11.10
2019-05-25T02:05:57.999Z,11.00
2019-05-25T02:06:44.219Z,11.10
2019-05-25T02:07:30.467Z,11.00
2019-05-25T02:08:16.511Z,11.00
2019-05-25T02:09:03.625Z,10.90
2019-05-25T02:09:49.626Z,10.90
2019-05-25T02:10:35.300Z,10.80
2019-05-25T02:11:21.001Z,10.80
2019-05-25T02:12:06.637Z,10.80
2019-05-25T02:12:52.311Z,10.80
2019-05-25T02:13:38.171Z,10.80
2019-05-25T02:14:24.337Z,10.80
2019-05-25T02:15:10.615Z,10.80
2019-05-25T02:15:56.697Z,10.80
2019-05-25T02:16:42.987Z,10.80
2019-05-25T02:17:29.340Z,10.80
2019-05-25T02:18:15.020Z,10.70
2019-05-25T02:19:00.740Z,10.70
2019-05-25T02:19:46.445Z,10.70
2019-05-25T02:20:32.266Z,10.80
2019-05-25T02:21:19.541Z,10.70
2019-05-25T02:22:06.073Z,10.70
2019-05-25T02:22:52.623Z,10.70
2019-05-25T02:23:38.831Z,10.70
2019-05-25T02:24:24.999Z,10.70
2019-05-25T02:25:19.051Z,10.70
2019-05-25T02:25:59.407Z,10.70
2019-05-25T02:26:45.419Z,10.70
2019-05-25T02:27:31.898Z,10.70
2019-05-25T02:28:17.841Z,10.70
2019-05-25T02:29:03.974Z,10.70
2019-05-25T02:29:50.264Z,10.70
2019-05-25T02:30:36.680Z,10.70
2019-05-25T02:31:23.104Z,10.70
2019-05-25T02:32:09.097Z,10.70
2019-05-25T02:32:55.698Z,10.70
2019-05-25T02:33:41.838Z,10.70
2019-05-25T02:34:28.391Z,10.70
2019-05-25T02:35:23.525Z,10.70
2019-05-25T02:36:09.662Z,10.60
2019-05-25T02:36:55.727Z,10.60
2019-05-25T02:37:42.087Z,10.60
2019-05-25T02:38:28.094Z,10.60
2019-05-25T02:39:14.399Z,10.60
2019-05-25T02:40:00.322Z,10.50
2019-05-25T02:40:46.839Z,10.50
2019-05-25T02:41:35.251Z,10.50
2019-05-25T02:42:21.829Z,10.50
2019-05-25T02:43:09.907Z,10.50
2019-05-25T02:43:56.253Z,10.50
2019-05-25T02:44:42.405Z,10.60
2019-05-25T02:45:28.599Z,10.50
2019-05-25T02:46:15.134Z,10.50
2019-05-25T02:47:01.431Z,10.50
2019-05-25T02:47:47.818Z,10.50
2019-05-25T02:48:34.179Z,10.50
2019-05-25T02:49:20.928Z,10.40
2019-05-25T02:50:07.379Z,10.50
2019-05-25T02:50:53.475Z,10.50
2019-05-25T02:51:39.736Z,10.50
2019-05-25T02:52:25.788Z,10.50
2019-05-25T02:53:12.491Z,10.50
2019-05-25T02:53:59.374Z,10.50
2019-05-25T02:54:45.804Z,10.40
2019-05-25T02:55:34.802Z,10.40
2019-05-25T02:56:20.180Z,10.40
2019-05-25T02:57:08.164Z,10.30
2019-05-25T02:57:54.258Z,10.30
2019-05-25T02:58:40.497Z,10.30
2019-05-25T02:59:26.795Z,10.40
2019-05-25T03:00:15.544Z,10.40
2019-05-25T03:01:01.606Z,10.40
2019-05-25T03:01:49.083Z,10.40
2019-05-25T03:02:35.539Z,10.30
2019-05-25T03:03:21.999Z,10.40
2019-05-25T03:04:07.963Z,10.40
2019-05-25T03:04:54.263Z,10.30
2019-05-25T03:05:40.802Z,10.30
2019-05-25T03:06:27.931Z,10.30
2019-05-25T03:07:14.692Z,10.30
2019-05-25T03:08:01.887Z,10.30
2019-05-25T03:08:48.539Z,10.30
2019-05-25T03:09:37.413Z,10.40
2019-05-25T03:10:24.226Z,10.30
2019-05-25T03:11:10.872Z,10.40
2019-05-25T03:11:58.763Z,10.30
2019-05-25T03:12:45.159Z,10.30
2019-05-25T03:13:31.833Z,10.30
2019-05-25T03:14:17.925Z,10.30
2019-05-25T03:15:05.199Z,10.30
2019-05-25T03:15:51.586Z,10.30
2019-05-25T03:16:38.225Z,10.30
2019-05-25T03:17:24.885Z,10.30
2019-05-25T03:18:12.625Z,10.30
2019-05-25T03:18:58.882Z,10.30
2019-05-25T03:19:45.455Z,10.30
2019-05-25T03:20:31.821Z,10.20
2019-05-25T03:21:19.579Z,10.20
2019-05-25T03:22:05.972Z,10.20
2019-05-25T03:22:52.114Z,10.20
2019-05-25T03:23:38.269Z,10.20
2019-05-25T03:24:25.579Z,10.20
2019-05-25T03:25:12.215Z,10.20
2019-05-25T03:26:10.752Z,10.20
2019-05-25T03:26:56.646Z,10.30
2019-05-25T03:27:42.741Z,10.30
2019-05-25T03:28:28.942Z,10.30
2019-05-25T03:29:15.313Z,10.20
2019-05-25T03:30:01.341Z,10.20
2019-05-25T03:30:48.131Z,10.20
2019-05-25T03:31:34.419Z,10.20
2019-05-25T03:32:21.058Z,10.10
2019-05-25T03:33:07.284Z,10.20
2019-05-25T03:33:53.853Z,10.10
2019-05-25T03:34:39.940Z,10.20
2019-05-25T03:35:26.331Z,10.20
2019-05-25T03:36:12.538Z,10.20
2019-05-25T03:36:58.554Z,10.20
2019-05-25T03:37:44.623Z,10.20
2019-05-25T03:38:30.854Z,10.20
2019-05-25T03:39:18.522Z,10.20
2019-05-25T03:40:05.196Z,10.20
2019-05-25T03:40:51.596Z,10.20
2019-05-25T03:41:38.623Z,10.20
2019-05-25T03:42:24.561Z,10.20
2019-05-25T03:43:11.169Z,10.20
2019-05-25T03:43:58.953Z,10.10
2019-05-25T03:44:46.636Z,10.10
2019-05-25T03:45:39.215Z,10.10
2019-05-25T03:46:25.461Z,10.10
2019-05-25T03:47:11.474Z,10.10
2019-05-25T03:47:58.608Z,10.10
2019-05-25T03:48:44.887Z,10.10
2019-05-25T03:49:30.875Z,10.10
2019-05-25T03:50:17.571Z,10.10
2019-05-25T03:51:03.836Z,10.10
2019-05-25T03:51:49.890Z,10.10
2019-05-25T03:52:36.327Z,10.10
2019-05-25T03:53:22.745Z,10.10
2019-05-25T03:54:08.827Z,10.10
2019-05-25T03:54:54.912Z,10.00
2019-05-25T03:55:41.104Z,10.10
2019-05-25T03:56:27.702Z,10.00
2019-05-25T03:57:13.684Z,10.00
2019-05-25T03:57:59.811Z,10.00
2019-05-25T03:58:45.771Z,10.00
2019-05-25T03:59:32.217Z,10.00
2019-05-25T04:00:29.908Z,10.00
2019-05-25T04:01:16.029Z,10.10
2019-05-25T04:02:02.221Z,10.10
2019-05-25T04:02:48.430Z,10.10
2019-05-25T04:03:34.823Z,10.10
2019-05-25T04:04:20.843Z,10.10
2019-05-25T04:05:07.079Z,10.10
2019-05-25T04:05:52.979Z,10.00
2019-05-25T04:06:39.395Z,10.00
2019-05-25T04:07:25.895Z,10.00
2019-05-25T04:08:12.535Z,10.00
2019-05-25T04:09:01.443Z,10.00
2019-05-25T04:09:49.138Z,10.00
2019-05-25T04:10:38.757Z,10.10
2019-05-25T04:11:25.089Z,10.10
2019-05-25T04:12:11.400Z,10.10
2019-05-25T04:12:57.657Z,10.10
2019-05-25T04:13:44.412Z,10.00
2019-05-25T04:14:31.350Z,10.00
2019-05-25T04:15:18.749Z,10.00
2019-05-25T04:16:05.187Z,10.00
2019-05-25T04:16:51.648Z,10.00
2019-05-25T04:17:38.285Z,10.10
2019-05-25T04:18:26.810Z,10.10
2019-05-25T04:19:13.859Z,10.00
2019-05-25T04:20:02.677Z,10.00
2019-05-25T04:20:48.625Z,10.00
2019-05-25T04:21:36.141Z,10.00
2019-05-25T04:22:22.341Z,10.00
2019-05-25T04:23:10.728Z,10.00
2019-05-25T04:23:57.092Z,10.00
2019-05-25T04:24:44.394Z,10.00
2019-05-25T04:25:31.111Z,10.00
2019-05-25T04:26:22.607Z,10.00
2019-05-25T04:27:06.065Z,10.00
2019-05-25T04:27:52.365Z,10.00
2019-05-25T04:28:41.674Z,10.00
2019-05-25T04:29:30.542Z,10.10
2019-05-25T04:30:18.012Z,10.10
2019-05-25T04:31:05.418Z,10.10
2019-05-25T04:31:51.995Z,10.10
2019-05-25T04:32:38.239Z,10.00
2019-05-25T04:33:24.807Z,10.00
2019-05-25T04:34:11.524Z,10.00
2019-05-25T04:34:59.916Z,10.00
2019-05-25T04:35:46.723Z,10.10
2019-05-25T04:36:33.080Z,10.00
2019-05-25T04:37:19.337Z,10.00
2019-05-25T04:38:05.968Z,10.10
2019-05-25T04:38:53.198Z,10.10
2019-05-25T04:39:39.664Z,10.10
2019-05-25T04:40:28.847Z,10.10
2019-05-25T04:41:18.231Z,10.10
2019-05-25T04:42:04.371Z,10.10
2019-05-25T04:42:50.920Z,10.10
2019-05-25T04:43:37.067Z,10.10
2019-05-25T04:44:23.500Z,10.10
2019-05-25T04:45:10.203Z,10.20
2019-05-25T04:45:56.787Z,10.20
2019-05-25T04:46:43.100Z,10.20
2019-05-25T04:47:29.643Z,10.20
2019-05-25T04:48:16.097Z,10.20
2019-05-25T04:49:02.716Z,10.20
2019-05-25T04:49:49.374Z,10.20
2019-05-25T04:50:35.468Z,10.30
2019-05-25T04:51:22.570Z,10.30
2019-05-25T04:52:09.935Z,10.30
2019-05-25T04:52:56.271Z,10.30
2019-05-25T04:53:42.819Z,10.30
2019-05-25T04:54:29.130Z,10.40
2019-05-25T04:55:21.828Z,10.30
2019-05-25T04:56:08.312Z,10.30
2019-05-25T04:56:54.745Z,10.30
2019-05-25T04:57:40.803Z,10.30
2019-05-25T04:58:26.919Z,10.40
2019-05-25T04:59:13.707Z,10.30
2019-05-25T05:00:00.017Z,10.40
2019-05-25T05:00:46.141Z,10.40
2019-05-25T05:01:36.295Z,10.30
2019-05-25T05:02:22.395Z,10.30
2019-05-25T05:03:08.636Z,10.40
2019-05-25T05:03:54.848Z,10.40
2019-05-25T05:04:40.949Z,10.40
2019-05-25T05:05:29.381Z,10.40
2019-05-25T05:06:15.482Z,10.40
2019-05-25T05:07:02.126Z,10.40
2019-05-25T05:07:48.675Z,10.40
2019-05-25T05:08:35.712Z,10.50
2019-05-25T05:09:22.073Z,10.50
2019-05-25T05:10:08.674Z,10.50
2019-05-25T05:10:54.849Z,10.60
2019-05-25T05:11:40.997Z,10.60
2019-05-25T05:12:28.048Z,10.60
2019-05-25T05:13:14.223Z,10.70
2019-05-25T05:14:00.632Z,10.70
2019-05-25T05:14:47.029Z,10.70
2019-05-25T05:15:33.044Z,10.70
2019-05-25T05:16:19.495Z,10.80
2019-05-25T05:17:06.167Z,10.80
2019-05-25T05:17:53.235Z,10.80
2019-05-25T05:18:39.547Z,10.90
2019-05-25T05:19:25.922Z,10.90
2019-05-25T05:20:12.242Z,11.00
2019-05-25T05:20:58.293Z,11.10
2019-05-25T05:21:44.488Z,11.10
2019-05-25T05:22:30.650Z,11.10
2019-05-25T05:23:16.307Z,11.20
2019-05-25T05:24:01.997Z,11.30
2019-05-25T05:24:47.785Z,11.30
2019-05-25T05:25:33.588Z,11.40
2019-05-25T05:26:19.409Z,11.40
2019-05-25T05:27:05.395Z,11.40
2019-05-25T05:27:51.516Z,11.40
2019-05-25T05:28:38.098Z,11.50
2019-05-25T05:29:24.285Z,11.50
2019-05-25T05:30:10.923Z,11.50
2019-05-25T05:30:56.921Z,11.50
2019-05-25T05:31:43.218Z,11.50
2019-05-25T05:32:31.137Z,11.60
2019-05-25T05:33:17.181Z,11.60
2019-05-25T05:34:04.534Z,11.60
2019-05-25T05:34:53.066Z,11.60
2019-05-25T05:35:39.412Z,11.70
2019-05-25T05:36:27.161Z,11.70
2019-05-25T05:37:13.350Z,11.70
2019-05-25T05:38:02.335Z,11.80
2019-05-25T05:38:49.338Z,11.80
2019-05-25T05:39:37.408Z,11.80
2019-05-25T05:40:23.588Z,11.90
2019-05-25T05:41:10.903Z,11.90
2019-05-25T05:41:59.562Z,11.90
2019-05-25T05:42:48.473Z,11.90
2019-05-25T05:43:37.038Z,12.00
2019-05-25T05:44:25.653Z,12.00
2019-05-25T05:45:11.778Z,12.00
2019-05-25T05:45:59.475Z,12.00
2019-05-25T05:46:48.082Z,12.00
2019-05-25T05:47:35.480Z,12.00
2019-05-25T05:48:24.955Z,12.00
2019-05-25T05:49:11.353Z,12.00
2019-05-25T05:50:00.418Z,12.10
2019-05-25T05:50:48.181Z,12.10
2019-05-25T05:51:35.062Z,12.10
2019-05-25T05:52:23.604Z,12.10
2019-05-25T05:53:09.846Z,12.10
2019-05-25T05:53:56.275Z,12.10
2019-05-25T05:54:44.939Z,12.20
2019-05-25T05:55:31.550Z,12.20
2019-05-25T05:56:17.427Z,12.30
2019-05-25T05:57:12.163Z,12.30
2019-05-25T05:57:51.058Z,12.30
2019-05-25T05:58:37.125Z,12.30
2019-05-25T05:59:23.029Z,12.30
2019-05-25T06:00:12.103Z,12.30
2019-05-25T06:00:58.045Z,12.30
2019-05-25T06:01:43.807Z,12.40
2019-05-25T06:02:30.264Z,12.40
2019-05-25T06:03:16.744Z,12.40
2019-05-25T06:04:03.456Z,12.40
2019-05-25T06:04:50.321Z,12.50
2019-05-25T06:05:36.711Z,12.50
2019-05-25T06:06:23.154Z,12.50
2019-05-25T06:07:47.137Z,12.60
2019-05-25T06:08:33.100Z,12.60
2019-05-25T06:09:19.089Z,12.60
2019-05-25T06:10:07.101Z,12.60
2019-05-25T06:10:52.847Z,12.50
2019-05-25T06:11:39.309Z,12.60
2019-05-25T06:12:26.345Z,12.70
2019-05-25T06:13:12.504Z,12.70
2019-05-25T06:13:58.659Z,12.80
2019-05-25T06:14:44.686Z,12.80
2019-05-25T06:15:30.611Z,12.80
2019-05-25T06:16:19.628Z,12.90
2019-05-25T06:17:05.580Z,13.00
2019-05-25T06:17:51.602Z,13.10
2019-05-25T06:18:38.155Z,13.10
2019-05-25T06:19:24.279Z,13.20
2019-05-25T06:20:10.772Z,13.30
2019-05-25T06:20:56.834Z,13.30
2019-05-25T06:21:45.655Z,13.30
2019-05-25T06:22:31.911Z,13.40
2019-05-25T06:23:17.788Z,13.40
2019-05-25T06:24:04.175Z,13.50
2019-05-25T06:24:50.648Z,13.50
2019-05-25T06:25:37.299Z,13.60
2019-05-25T06:26:23.980Z,13.60
2019-05-25T06:27:18.902Z,13.60
2019-05-25T06:27:59.876Z,13.70
2019-05-25T06:28:45.962Z,13.80
2019-05-25T06:29:35.754Z,13.80
2019-05-25T06:30:22.204Z,13.80
2019-05-25T06:31:09.257Z,13.80
2019-05-25T06:32:05.614Z,13.90
2019-05-25T06:32:52.100Z,14.00
2019-05-25T06:33:38.732Z,14.00
2019-05-25T06:34:25.773Z,14.10
2019-05-25T06:35:12.691Z,14.10
2019-05-25T06:36:00.234Z,14.20
2019-05-25T06:36:46.463Z,14.40
2019-05-25T06:37:32.630Z,14.40
2019-05-25T06:38:18.980Z,14.50
2019-05-25T06:39:06.688Z,14.70
2019-05-25T06:39:52.995Z,14.80
2019-05-25T06:40:41.196Z,14.80
2019-05-25T06:41:31.079Z,14.80
2019-05-25T06:42:17.412Z,14.90
2019-05-25T06:43:03.398Z,14.80
2019-05-25T06:43:49.626Z,14.70
2019-05-25T06:44:35.588Z,14.80
2019-05-25T06:45:25.752Z,14.80
2019-05-25T06:46:12.110Z,14.80
2019-05-25T06:46:58.298Z,14.80
2019-05-25T06:47:48.438Z,14.70
2019-05-25T06:48:34.590Z,14.70
2019-05-25T06:49:20.835Z,14.70
2019-05-25T06:50:11.876Z,14.70
2019-05-25T06:50:57.597Z,14.70
2019-05-25T06:51:44.094Z,14.70
2019-05-25T06:52:30.356Z,14.70
2019-05-25T06:53:25.872Z,14.80
2019-05-25T06:54:12.776Z,14.80
2019-05-25T06:55:11.731Z,14.90
2019-05-25T06:55:58.060Z,14.80
2019-05-25T06:56:44.352Z,14.90
2019-05-25T06:57:42.608Z,14.90
2019-05-25T06:58:20.877Z,15.00
2019-05-25T06:59:07.195Z,15.00
2019-05-25T06:59:53.279Z,15.00
2019-05-25T07:00:39.383Z,15.00
2019-05-25T07:01:30.796Z,15.00
2019-05-25T07:02:17.893Z,15.00
2019-05-25T07:03:04.060Z,15.00
2019-05-25T07:03:50.024Z,15.00
2019-05-25T07:04:36.016Z,15.00
2019-05-25T07:05:23.251Z,15.00
2019-05-25T07:06:09.714Z,15.00
2019-05-25T07:06:56.964Z,15.00
2019-05-25T07:07:47.288Z,15.00
2019-05-25T07:08:34.249Z,14.90
2019-05-25T07:09:20.688Z,14.90
2019-05-25T07:10:10.201Z,14.90
2019-05-25T07:10:56.903Z,14.90
2019-05-25T07:11:42.959Z,14.90
2019-05-25T07:12:30.009Z,14.90
2019-05-25T07:13:16.295Z,14.90
2019-05-25T07:14:02.262Z,15.00
2019-05-25T07:14:48.546Z,15.00
2019-05-25T07:15:34.821Z,15.10
2019-05-25T07:16:20.619Z,15.20
2019-05-25T07:17:06.833Z,15.30
2019-05-25T07:17:53.400Z,15.40
2019-05-25T07:18:39.852Z,15.40
2019-05-25T07:19:26.650Z,15.40
2019-05-25T07:20:13.053Z,15.50
2019-05-25T07:20:59.512Z,15.50
2019-05-25T07:21:46.069Z,15.50
2019-05-25T07:22:32.516Z,15.40
2019-05-25T07:23:18.983Z,15.50
2019-05-25T07:24:06.083Z,15.50
2019-05-25T07:24:52.449Z,15.60
2019-05-25T07:25:38.419Z,15.60
2019-05-25T07:26:24.891Z,15.60
2019-05-25T07:27:11.506Z,15.60
2019-05-25T07:28:01.608Z,15.50
2019-05-25T07:28:50.826Z,15.50
2019-05-25T07:29:36.884Z,15.50
2019-05-25T07:30:23.819Z,15.50
2019-05-25T07:31:11.932Z,15.40
2019-05-25T07:31:57.923Z,15.40
2019-05-25T07:32:44.545Z,15.30
2019-05-25T07:33:31.403Z,15.30
2019-05-25T07:34:18.526Z,15.30
2019-05-25T07:35:04.773Z,15.20
2019-05-25T07:35:51.364Z,15.30
2019-05-25T07:36:38.204Z,15.20
2019-05-25T07:37:24.632Z,15.20
2019-05-25T07:38:10.777Z,15.20
2019-05-25T07:38:56.650Z,15.20
2019-05-25T07:39:42.896Z,15.20
2019-05-25T07:40:29.119Z,15.10
2019-05-25T07:41:18.218Z,15.20
2019-05-25T07:42:04.776Z,15.20
2019-05-25T07:43:07.386Z,15.20
2019-05-25T07:43:53.371Z,15.20
2019-05-25T07:44:42.403Z,15.30
2019-05-25T07:45:28.379Z,15.50
2019-05-25T07:46:17.084Z,15.60
2019-05-25T07:47:05.481Z,15.60
2019-05-25T07:47:53.409Z,15.60
2019-05-25T07:48:40.844Z,15.60
2019-05-25T07:49:27.715Z,15.70
2019-05-25T07:50:18.070Z,15.70
2019-05-25T07:51:10.102Z,15.80
2019-05-25T07:52:04.035Z,15.80
2019-05-25T07:52:51.515Z,15.80
2019-05-25T07:53:40.106Z,15.80
2019-05-25T07:54:31.401Z,15.70
2019-05-25T07:55:17.726Z,15.60
2019-05-25T07:56:03.929Z,15.60
2019-05-25T07:56:50.004Z,15.60
2019-05-25T07:57:36.289Z,15.60
2019-05-25T07:58:23.062Z,15.60
2019-05-25T07:59:12.553Z,15.60
2019-05-25T07:59:59.382Z,15.50
2019-05-25T08:00:54.447Z,15.40
2019-05-25T08:01:44.226Z,15.40
2019-05-25T08:02:31.665Z,15.30
2019-05-25T08:03:25.453Z,15.30
2019-05-25T08:04:11.673Z,15.20
2019-05-25T08:04:58.000Z,15.50
2019-05-25T08:05:47.575Z,15.60
2019-05-25T08:06:36.923Z,15.70
2019-05-25T08:07:23.811Z,15.80
2019-05-25T08:08:13.333Z,16.10
2019-05-25T08:09:05.985Z,16.20
2019-05-25T08:09:54.723Z,16.40
2019-05-25T08:10:46.201Z,16.60
2019-05-25T08:11:35.925Z,16.70
2019-05-25T08:12:27.413Z,16.60
2019-05-25T08:13:13.515Z,16.60
2019-05-25T08:14:04.989Z,16.60
2019-05-25T08:14:51.062Z,16.60
2019-05-25T08:15:36.807Z,16.60
2019-05-25T08:16:22.835Z,16.80
2019-05-25T08:17:08.964Z,17.10
2019-05-25T08:17:55.523Z,17.50
2019-05-25T08:18:45.995Z,17.80
2019-05-25T08:19:32.276Z,18.20
2019-05-25T08:20:18.163Z,18.50
2019-05-25T08:21:04.278Z,18.50
2019-05-25T08:21:50.575Z,18.50
2019-05-25T08:22:37.100Z,18.30
2019-05-25T08:23:23.769Z,18.50
2019-05-25T08:24:10.455Z,18.70
2019-05-25T08:24:57.378Z,18.70
2019-05-25T08:25:44.345Z,18.50
2019-05-25T08:26:30.935Z,18.30
2019-05-25T08:27:18.063Z,18.20
2019-05-25T08:28:05.022Z,18.20
2019-05-25T08:28:55.895Z,18.30
2019-05-25T08:29:44.376Z,18.50
2019-05-25T08:30:33.263Z,18.40
2019-05-25T08:31:21.479Z,18.30
2019-05-25T08:32:07.748Z,18.20
2019-05-25T08:32:53.870Z,18.20
2019-05-25T08:33:43.133Z,18.00
2019-05-25T08:34:31.669Z,18.10
2019-05-25T08:35:18.720Z,18.30
2019-05-25T08:36:05.495Z,18.30
2019-05-25T08:36:52.623Z,18.40
2019-05-25T08:37:39.432Z,18.60
2019-05-25T08:38:28.457Z,18.60
2019-05-25T08:39:16.807Z,18.50
2019-05-25T08:40:04.309Z,18.60
2019-05-25T08:40:54.775Z,18.60
2019-05-25T08:41:41.022Z,18.70
2019-05-25T08:42:27.038Z,18.80
2019-05-25T08:43:13.686Z,18.90
2019-05-25T08:44:04.388Z,18.90
2019-05-25T08:44:50.053Z,18.70
2019-05-25T08:45:36.443Z,18.70
2019-05-25T08:46:22.990Z,18.80
2019-05-25T08:47:08.864Z,18.70
2019-05-25T08:48:01.555Z,18.80
2019-05-25T08:48:48.770Z,18.80
2019-05-25T08:49:35.812Z,18.50
2019-05-25T08:50:35.393Z,18.80
2019-05-25T08:51:11.139Z,18.80
2019-05-25T08:51:57.372Z,18.70
2019-05-25T08:52:45.790Z,18.80
2019-05-25T08:53:41.100Z,18.60
2019-05-25T08:54:20.364Z,18.80
2019-05-25T08:55:07.980Z,19.00
2019-05-25T08:55:53.974Z,19.40
2019-05-25T08:56:39.926Z,19.70
2019-05-25T08:57:26.080Z,20.10
2019-05-25T08:58:13.834Z,20.60
2019-05-25T08:59:04.190Z,20.70
2019-05-25T08:59:50.134Z,20.30
2019-05-25T09:00:47.435Z,19.90
2019-05-25T09:01:34.452Z,19.40
2019-05-25T09:02:21.556Z,19.20
2019-05-25T09:03:08.008Z,19.30
2019-05-25T09:03:53.935Z,19.70
2019-05-25T09:04:40.172Z,20.20
2019-05-25T09:05:30.182Z,20.70
2019-05-25T09:06:17.686Z,20.90
2019-05-25T09:07:04.027Z,21.20
2019-05-25T09:07:49.865Z,21.60
2019-05-25T09:08:36.100Z,22.00
2019-05-25T09:09:22.508Z,22.40
2019-05-25T09:10:09.790Z,22.40
2019-05-25T09:10:56.167Z,22.00
2019-05-25T09:11:42.576Z,21.50
2019-05-25T09:12:29.044Z,21.80
2019-05-25T09:13:15.484Z,22.60
2019-05-25T09:14:01.775Z,23.30
2019-05-25T09:14:47.833Z,24.10
2019-05-25T09:15:35.355Z,24.90
2019-05-25T09:16:21.658Z,24.60
2019-05-25T09:17:07.918Z,24.50
2019-05-25T09:17:54.023Z,24.90
2019-05-25T09:18:40.079Z,26.30
2019-05-25T09:19:26.328Z,27.10
2019-05-25T09:20:12.878Z,27.40
2019-05-25T09:21:01.876Z,27.80
2019-05-25T09:22:01.469Z,27.90
2019-05-25T09:22:35.784Z,28.50
2019-05-25T09:23:21.823Z,28.90
2019-05-25T09:24:07.961Z,29.40
2019-05-25T09:24:53.596Z,29.20
2019-05-25T09:25:39.483Z,29.50
2019-05-25T09:26:25.489Z,29.90
2019-05-25T09:27:11.150Z,30.20
2019-05-25T09:27:56.863Z,30.70
2019-05-25T09:28:42.659Z,30.20
2019-05-25T09:29:28.969Z,29.80
2019-05-25T09:30:14.961Z,29.90
2019-05-25T09:31:01.477Z,29.10
2019-05-25T09:31:48.253Z,28.70
2019-05-25T09:32:34.576Z,27.70
2019-05-25T09:33:23.520Z,27.20
2019-05-25T09:34:09.555Z,28.20
2019-05-25T09:34:55.596Z,27.70
2019-05-25T09:35:41.790Z,26.50
2019-05-25T09:36:27.925Z,27.30
2019-05-25T09:37:14.100Z,27.60
2019-05-25T09:38:00.200Z,26.80
2019-05-25T09:38:46.948Z,26.90
2019-05-25T09:39:33.032Z,26.70
2019-05-25T09:40:19.072Z,26.20
2019-05-25T09:41:05.170Z,26.10
2019-05-25T09:41:51.000Z,25.70
2019-05-25T09:42:38.421Z,25.20
2019-05-25T09:43:25.060Z,24.80
2019-05-25T09:44:11.100Z,24.50
2019-05-25T09:44:57.623Z,24.10
2019-05-25T09:45:49.532Z,25.30
2019-05-25T09:46:35.895Z,25.80
2019-05-25T09:47:26.777Z,26.30
2019-05-25T09:48:14.733Z,26.50
2019-05-25T09:49:01.450Z,26.60
2019-05-25T09:49:50.960Z,26.70
2019-05-25T09:50:38.006Z,26.20
2019-05-25T09:51:24.719Z,26.60
2019-05-25T09:52:10.921Z,26.10
2019-05-25T09:52:58.823Z,25.20
2019-05-25T09:53:44.900Z,25.70
2019-05-25T09:54:31.453Z,25.80
2019-05-25T09:55:18.188Z,25.20
2019-05-25T09:56:08.541Z,24.60
2019-05-25T09:56:55.598Z,23.50
2019-05-25T09:57:42.090Z,22.80
2019-05-25T09:58:30.542Z,22.60
2019-05-25T09:59:20.124Z,22.30
2019-05-25T10:00:09.145Z,22.10
2019-05-25T10:00:58.172Z,22.00
2019-05-25T10:01:44.836Z,22.50
2019-05-25T10:02:31.531Z,23.90
2019-05-25T10:03:22.357Z,25.00
2019-05-25T10:04:08.864Z,25.90
2019-05-25T10:04:54.887Z,26.70